Time;durP1;ratioP1;P1;durP2;ratioP2;P2;SDS_P1;SDS_P2;PMS_P1;PMS_P2;Temp;Humidity;BMP_temperature;BMP_pressure;BME280_temperature;BME280_humidity;BME280_pressure;Samples;Min_cycle;Max_cycle;Signal;HPM_P1;HPM_P2
2021/03/08 00:01:36;;;;;;;10.65;6.85;;;;;;;3.03;56.07;100235.09;1768669;81;21249;-73
2021/03/08 00:04:10;;;;;;;9.55;6.47;;;;;;;3.02;56.08;100236.45;1768523;81;21253;-72
2021/03/08 00:06:42;;;;;;;9.60;7.12;;;;;;;3.01;56.31;100233.51;1768573;81;21245;-73
2021/03/08 00:09:15;;;;;;;9.63;6.43;;;;;;;3.02;56.08;100236.45;1768506;81;21241;-72
2021/03/08 00:11:49;;;;;;;10.20;5.90;;;;;;;3.03;56.30;100230.37;1768599;81;21685;-73
2021/03/08 00:14:23;;;;;;;12.05;6.58;;;;;;;3.04;56.15;100221.22;1768284;81;21254;-68
2021/03/08 00:16:57;;;;;;;11.08;6.47;;;;;;;3.02;56.24;100220.94;1766748;80;21732;-72
2021/03/08 00:19:30;;;;;;;9.38;5.80;;;;;;;3.03;56.25;100217.44;1768483;81;21139;-73
2021/03/08 00:22:03;;;;;;;11.53;6.63;;;;;;;3.04;56.29;100221.22;1768651;81;21253;-72
2021/03/08 00:24:36;;;;;;;12.45;6.70;;;;;;;3.05;56.37;100215.13;1768421;81;21249;-71
2021/03/08 00:27:09;;;;;;;9.83;6.43;;;;;;;3.06;56.21;100209.02;1768688;81;21126;-73
2021/03/08 00:29:43;;;;;;;9.73;6.53;;;;;;;3.07;56.19;100211.16;1768397;81;21253;-72
2021/03/08 00:32:16;;;;;;;11.63;6.80;;;;;;;3.07;56.25;100211.99;1768381;81;21242;-72
2021/03/08 00:34:50;;;;;;;12.90;7.33;;;;;;;3.07;56.10;100203.39;1768491;81;21126;-72
2021/03/08 00:37:30;;;;;;;9.28;6.25;;;;;;;3.06;56.04;100204.30;1768693;81;21229;-71
2021/03/08 00:39:59;;;;;;;14.05;6.72;;;;;;;3.04;56.07;100197.10;1767031;80;21753;-68
2021/03/08 00:42:33;;;;;;;10.55;6.87;;;;;;;3.03;55.86;100190.28;1768133;81;21256;-71
2021/03/08 00:45:14;;;;;;;11.00;6.55;;;;;;;3.02;56.14;100188.16;1766792;81;21700;-72
2021/03/08 00:47:47;;;;;;;10.68;7.12;;;;;;;3.04;56.04;100190.18;1768270;81;21773;-73
2021/03/08 00:50:28;;;;;;;11.48;6.80;;;;;;;3.06;55.90;100192.66;1768071;81;21189;-72
2021/03/08 00:53:01;;;;;;;10.32;6.97;;;;;;;3.04;56.01;100190.18;1804540;79;21878;-70
2021/03/08 00:55:35;;;;;;;10.05;6.08;;;;;;;3.05;55.92;100187.14;1814025;79;21169;-72
2021/03/08 00:58:08;;;;;;;10.13;6.87;;;;;;;3.04;55.94;100187.59;1814016;79;21107;-72
2021/03/08 01:00:41;;;;;;;7.70;5.23;;;;;;;3.06;55.95;100191.38;1814387;79;21827;-72
2021/03/08 01:03:15;;;;;;;14.07;6.55;;;;;;;3.06;55.89;100179.28;1814033;79;21829;-72
2021/03/08 01:05:50;;;;;;;10.78;6.97;;;;;;;3.07;55.88;100184.00;1814050;79;21779;-72
2021/03/08 01:08:31;;;;;;;10.50;7.25;;;;;;;3.06;55.93;100187.49;1800323;79;21151;-72
2021/03/08 01:11:04;;;;;;;11.70;7.00;;;;;;;3.03;55.95;100178.19;1813992;79;21174;-73
2021/03/08 01:13:39;;;;;;;11.00;7.35;;;;;;;3.02;55.97;100180.39;1811029;79;21123;-72
2021/03/08 01:16:12;;;;;;;9.97;5.23;;;;;;;3.00;56.11;100181.41;1813402;79;21316;-71
2021/03/08 01:18:45;;;;;;;10.28;6.58;;;;;;;2.99;56.15;100183.61;1813961;79;21213;-71
2021/03/08 01:21:18;;;;;;;12.60;7.20;;;;;;;2.97;56.21;100180.28;1814007;79;21171;-72
2021/03/08 01:23:51;;;;;;;13.18;7.65;;;;;;;2.93;56.36;100177.06;1813752;79;21276;-72
2021/03/08 01:26:24;;;;;;;10.53;7.20;;;;;;;2.89;56.26;100177.33;1814149;79;21253;-73
2021/03/08 01:28:57;;;;;;;14.40;8.47;;;;;;;2.82;56.47;100183.78;1814549;79;21143;-72
2021/03/08 01:31:31;;;;;;;14.45;8.73;;;;;;;2.78;56.67;100180.98;1814096;79;21261;-70
2021/03/08 01:34:04;;;;;;;12.55;8.43;;;;;;;2.77;56.78;100182.73;1813062;79;21256;-70
2021/03/08 01:36:37;;;;;;;15.93;9.07;;;;;;;2.75;56.90;100181.18;1814011;79;21162;-72
2021/03/08 01:39:10;;;;;;;15.37;9.13;;;;;;;2.71;57.16;100160.67;1813973;79;21139;-69
2021/03/08 01:41:43;;;;;;;15.98;8.33;;;;;;;2.66;57.51;100175.61;1814263;79;21261;-72
2021/03/08 01:44:16;;;;;;;13.15;7.35;;;;;;;2.62;57.81;100184.92;1813583;79;21241;-72
2021/03/08 01:46:50;;;;;;;14.17;8.87;;;;;;;2.60;57.87;100181.11;1814016;79;21182;-72
2021/03/08 01:49:23;;;;;;;;;;;;;;;2.57;58.23;100180.47;1816926;79;21939;-73
2021/03/08 01:51:55;;;;;;;16.17;7.97;;;;;;;2.56;58.33;100181.38;1811783;79;20224;-72
2021/03/08 01:54:28;;;;;;;16.05;9.38;;;;;;;2.53;58.59;100182.38;1803287;79;21218;-73
2021/03/08 01:57:02;;;;;;;13.93;6.92;;;;;;;2.51;58.64;100188.10;1799963;80;21317;-71
2021/03/08 01:59:35;;;;;;;14.45;8.45;;;;;;;2.50;58.65;100181.74;1800266;80;21281;-73
2021/03/08 02:02:09;;;;;;;14.93;8.63;;;;;;;2.47;58.74;100184.49;1799633;80;21278;-72
2021/03/08 02:04:43;;;;;;;15.70;8.65;;;;;;;2.46;58.82;100184.14;1800074;79;21191;-70
2021/03/08 02:07:16;;;;;;;18.40;8.80;;;;;;;2.50;59.03;100192.08;1799484;80;21274;-72
2021/03/08 02:09:49;;;;;;;15.28;8.58;;;;;;;2.51;58.76;100179.52;1800248;80;21242;-72
2021/03/08 02:12:50;;;;;;;12.35;7.30;;;;;;;2.51;58.73;100189.84;1799873;80;21286;-71
2021/03/08 02:15:43;;;;;;;16.73;8.80;;;;;;;2.52;58.58;100187.20;1798963;79;21171;-68
2021/03/08 02:18:40;;;;;;;15.68;8.18;;;;;;;2.51;58.77;100183.39;1798802;79;21218;-72
2021/03/08 02:21:44;;;;;;;16.60;9.75;;;;;;;2.52;58.56;100182.48;1800418;79;21166;-69
2021/03/08 02:24:51;;;;;;;14.43;7.67;;;;;;;2.51;58.51;100177.77;1800047;79;21345;-74
2021/03/08 02:27:44;;;;;;;14.28;7.85;;;;;;;2.49;58.52;100182.20;1763331;79;21171;-73
2021/03/08 02:30:41;;;;;;;13.60;7.87;;;;;;;2.47;58.60;100173.70;1799813;80;21277;-70
2021/03/08 02:33:23;;;;;;;11.12;6.95;;;;;;;2.46;58.36;100167.34;1799476;79;21278;-70
2021/03/08 02:35:59;;;;;;;14.20;7.97;;;;;;;2.44;58.55;100163.98;1799916;79;21127;-71
2021/03/08 02:38:33;;;;;;;13.30;7.97;;;;;;;2.46;58.52;100163.47;1799089;80;21214;-69
2021/03/08 02:41:17;;;;;;;12.53;7.05;;;;;;;2.46;58.54;100161.69;1800260;80;21318;-71
2021/03/08 02:43:54;;;;;;;10.90;7.50;;;;;;;2.49;58.38;100152.94;1799342;79;21210;-70
2021/03/08 02:46:31;;;;;;;18.80;8.75;;;;;;;2.51;58.30;100154.52;1798478;80;21221;-73
2021/03/08 02:49:07;;;;;;;13.13;7.85;;;;;;;2.52;58.36;100156.19;1798712;80;21151;-74
2021/03/08 02:51:44;;;;;;;14.23;7.95;;;;;;;2.54;58.37;100161.26;1799154;79;21174;-71
2021/03/08 02:54:18;;;;;;;12.78;8.03;;;;;;;2.56;58.41;100158.13;1798622;79;21175;-71
2021/03/08 02:56:51;;;;;;;14.80;7.65;;;;;;;2.59;58.35;100157.95;1800214;80;21769;-72
2021/03/08 02:59:24;;;;;;;15.28;7.22;;;;;;;2.61;58.39;100161.28;1799023;79;21222;-69
2021/03/08 03:01:57;;;;;;;14.33;8.40;;;;;;;2.62;58.41;100169.42;1800302;79;21328;-72
2021/03/08 03:04:30;;;;;;;9.15;5.37;;;;;;;2.64;58.45;100168.41;1798642;80;21147;-73
2021/03/08 03:07:04;;;;;;;9.93;5.53;;;;;;;2.66;58.42;100156.23;1800736;79;21196;-72
2021/03/08 03:09:37;;;;;;;14.07;8.35;;;;;;;2.67;58.38;100160.45;1798665;80;21171;-69
2021/03/08 03:12:11;;;;;;;15.67;7.40;;;;;;;2.68;58.25;100158.71;1800186;80;21246;-72
2021/03/08 03:14:44;;;;;;;13.00;7.42;;;;;;;2.65;58.19;100159.72;1798680;80;21179;-71
2021/03/08 03:17:17;;;;;;;11.45;7.05;;;;;;;2.66;58.32;100164.44;1800368;80;21242;-72
2021/03/08 03:19:52;;;;;;;12.75;7.50;;;;;;;2.63;58.34;100158.98;1798628;80;21729;-71
2021/03/08 03:22:26;;;;;;;12.47;7.70;;;;;;;2.62;58.35;100159.08;1800012;80;21112;-72
2021/03/08 03:25:00;;;;;;;11.83;6.97;;;;;;;2.61;58.39;100148.36;1798734;80;21214;-69
2021/03/08 03:27:33;;;;;;;12.07;7.17;;;;;;;2.59;58.30;100154.08;1800298;80;21753;-71
2021/03/08 03:30:08;;;;;;;11.70;6.70;;;;;;;2.57;58.38;100156.77;1798978;80;21156;-72
2021/03/08 03:32:42;;;;;;;14.18;7.25;;;;;;;2.55;58.37;100156.02;1770493;79;21237;-70
2021/03/08 03:35:16;;;;;;;10.35;6.55;;;;;;;2.54;58.39;100138.00;1799968;80;21167;-69
2021/03/08 03:37:49;;;;;;;13.25;7.42;;;;;;;2.53;58.29;100154.45;1800515;79;21290;-69
2021/03/08 03:40:22;;;;;;;12.58;6.97;;;;;;;2.52;58.29;100150.19;1798699;80;21702;-71
2021/03/08 03:42:55;;;;;;;11.20;6.70;;;;;;;2.49;58.45;100146.02;1800460;80;21234;-71
2021/03/08 03:45:29;;;;;;;12.43;6.58;;;;;;;2.50;58.38;100146.41;1798524;80;21175;-71
2021/03/08 03:48:02;;;;;;;14.75;7.30;;;;;;;2.50;58.38;100144.28;1801410;79;21108;-72
2021/03/08 03:50:35;;;;;;;11.60;6.90;;;;;;;2.51;58.59;100139.46;1798763;80;21225;-69
2021/03/08 03:53:10;;;;;;;13.30;7.42;;;;;;;2.55;58.44;100143.55;1800533;79;21762;-71
2021/03/08 03:55:43;;;;;;;16.30;8.23;;;;;;;2.53;58.33;100135.87;1769875;79;21262;-70
2021/03/08 03:58:30;;;;;;;12.53;6.80;;;;;;;2.54;58.21;100138.84;1800221;80;21140;-69
2021/03/08 04:01:16;;;;;;;11.90;7.40;;;;;;;2.54;58.34;100145.75;1800246;79;21977;-67
2021/03/08 04:04:01;;;;;;;13.25;8.15;;;;;;;2.52;58.26;100143.72;1800111;79;21305;-71
2021/03/08 04:06:39;;;;;;;18.32;7.33;;;;;;;2.50;58.35;100131.36;1798626;79;21167;-70
2021/03/08 04:09:13;;;;;;;15.85;8.50;;;;;;;2.48;58.33;100126.74;1799638;80;21287;-71
2021/03/08 04:11:45;;;;;;;;;;;;;;;2.45;58.46;100130.78;1803933;79;21241;-69
2021/03/08 04:14:20;;;;;;;15.30;7.37;;;;;;;2.45;58.44;100133.37;1799877;79;20166;-70
2021/03/08 04:16:57;;;;;;;11.43;6.40;;;;;;;2.42;58.47;100131.79;1799360;80;21282;-70
2021/03/08 04:19:34;;;;;;;15.18;7.90;;;;;;;2.42;58.61;100120.62;1799698;80;21278;-69
2021/03/08 04:22:09;;;;;;;11.70;7.00;;;;;;;2.43;58.49;100132.17;1800033;79;21239;-69
2021/03/08 04:24:42;;;;;;;12.23;6.87;;;;;;;2.45;58.58;100125.62;1799797;80;21253;-70
2021/03/08 04:27:15;;;;;;;13.00;7.42;;;;;;;2.47;58.50;100127.65;1799215;80;21310;-70
2021/03/08 04:29:49;;;;;;;10.37;6.20;;;;;;;2.47;58.44;100131.07;1800196;80;21162;-69
2021/03/08 04:32:23;;;;;;;12.00;6.45;;;;;;;2.48;58.46;100125.45;1746565;79;21761;-66
2021/03/08 04:34:56;;;;;;;11.75;6.97;;;;;;;2.49;58.62;100125.80;1800007;79;21171;-69
2021/03/08 04:37:30;;;;;;;11.97;6.87;;;;;;;2.54;58.61;100117.33;1799239;80;21258;-68
2021/03/08 04:40:03;;;;;;;9.48;5.05;;;;;;;2.54;58.46;100128.50;1799976;80;21979;-69
2021/03/08 04:42:37;;;;;;;7.50;4.97;;;;;;;2.54;58.63;100131.09;1800508;80;21230;-68
2021/03/08 04:45:15;;;;;;;14.05;7.12;;;;;;;2.56;58.69;100129.70;1799841;80;21317;-69
2021/03/08 04:47:48;;;;;;;16.97;7.28;;;;;;;2.56;58.65;100129.24;1769113;79;21277;-69
2021/03/08 04:50:21;;;;;;;13.20;6.92;;;;;;;2.55;58.66;100134.52;1800032;79;21317;-70
2021/03/08 04:52:54;;;;;;;15.80;7.50;;;;;;;2.50;58.74;100133.94;1770943;79;21127;-68
2021/03/08 04:55:30;;;;;;;15.72;8.23;;;;;;;2.47;58.93;100136.69;1799894;80;21278;-70
2021/03/08 04:58:02;;;;;;;15.85;7.83;;;;;;;2.47;59.08;100140.11;1802328;79;21787;-70
2021/03/08 05:00:36;;;;;;;12.55;6.75;;;;;;;2.48;59.13;100127.58;1799574;80;21813;-71
2021/03/08 05:03:09;;;;;;;12.43;6.65;;;;;;;2.49;59.06;100126.64;1800846;79;21270;-71
2021/03/08 05:05:42;;;;;;;12.63;6.87;;;;;;;2.50;58.98;100128.32;1770766;79;21306;-70
2021/03/08 05:08:16;;;;;;;13.03;7.70;;;;;;;2.47;59.14;100134.11;1799105;79;21206;-70
2021/03/08 05:10:49;;;;;;;17.53;7.53;;;;;;;2.46;59.27;100134.56;1799920;80;21334;-70
2021/03/08 05:13:24;;;;;;;14.80;7.58;;;;;;;2.48;59.24;100126.74;1746906;79;21278;-68
2021/03/08 05:15:57;;;;;;;12.47;7.70;;;;;;;2.46;59.06;100135.86;1799636;80;21171;-68
2021/03/08 05:18:30;;;;;;;13.88;7.70;;;;;;;2.43;59.10;100138.64;1799664;79;21257;-69
2021/03/08 05:21:03;;;;;;;8.53;5.33;;;;;;;2.43;59.28;100139.92;1799811;79;21364;-68
2021/03/08 05:23:36;;;;;;;11.68;6.83;;;;;;;2.45;59.14;100144.55;1799697;80;21250;-69
2021/03/08 05:26:10;;;;;;;17.23;7.90;;;;;;;2.44;59.25;100138.15;1799584;80;21829;-68
2021/03/08 05:28:43;;;;;;;15.15;8.50;;;;;;;2.44;59.33;100145.91;1798995;80;21211;-66
2021/03/08 05:31:16;;;;;;;13.08;8.05;;;;;;;2.45;59.32;100148.42;1799757;80;21152;-68
2021/03/08 05:33:52;;;;;;;15.80;5.90;;;;;;;2.46;59.20;100144.90;1800345;80;21761;-69
2021/03/08 05:36:25;;;;;;;14.47;7.28;;;;;;;2.43;59.18;100155.88;1799265;80;21166;-69
2021/03/08 05:38:58;;;;;;;13.30;7.85;;;;;;;2.40;59.27;100155.59;1799112;80;21127;-69
2021/03/08 05:41:57;;;;;;;13.38;7.53;;;;;;;2.40;59.47;100156.05;1799881;79;21166;-69
2021/03/08 05:44:30;;;;;;;14.68;8.10;;;;;;;2.43;59.51;100149.42;1800038;79;21297;-69
2021/03/08 05:47:19;;;;;;;15.53;7.97;;;;;;;2.44;59.54;100157.08;1799266;80;21897;-69
2021/03/08 05:50:34;;;;;;;13.38;8.00;;;;;;;2.47;59.57;100158.20;1800144;80;21258;-69
2021/03/08 05:53:21;;;;;;;18.10;8.78;;;;;;;2.50;59.60;100163.66;1800498;79;21242;-70
2021/03/08 05:56:42;;;;;;;16.20;8.75;;;;;;;2.51;59.58;100156.26;1799976;80;21313;-68
2021/03/08 05:59:57;;;;;;;20.45;9.28;;;;;;;2.52;59.53;100156.19;1799173;79;21725;-70
2021/03/08 06:03:17;;;;;;;15.60;9.60;;;;;;;2.48;59.78;100163.75;1800815;79;21340;-70
2021/03/08 06:06:28;;;;;;;15.18;7.95;;;;;;;2.48;59.90;100160.33;1769243;79;21302;-68
2021/03/08 06:09:25;;;;;;;15.70;8.28;;;;;;;2.48;59.76;100166.34;1791080;78;21333;-69
2021/03/08 06:12:11;;;;;;;18.40;8.60;;;;;;;2.44;59.84;100176.45;1768806;78;21270;-69
2021/03/08 06:14:47;;;;;;;15.03;8.28;;;;;;;2.45;60.05;100174.70;1777381;79;21261;-70
2021/03/08 06:17:20;;;;;;;15.83;8.80;;;;;;;2.48;60.07;100179.71;1731182;83;21185;-70
2021/03/08 06:19:54;;;;;;;13.53;8.35;;;;;;;2.49;59.95;100178.77;1793789;80;21258;-68
2021/03/08 06:22:26;;;;;;;;;;;;;;;2.50;60.00;100171.41;1801669;80;21218;-71
2021/03/08 06:24:59;;;;;;;19.05;10.40;;;;;;;2.51;60.12;100164.84;1800883;79;20165;-71
2021/03/08 06:27:33;;;;;;;16.52;8.75;;;;;;;2.54;60.17;100172.44;1787540;78;21256;-71
2021/03/08 06:30:08;;;;;;;15.28;9.08;;;;;;;2.60;60.12;100169.48;1794146;78;21170;-70
2021/03/08 06:32:42;;;;;;;25.62;12.50;;;;;;;2.64;59.92;100164.98;1738699;81;21301;-70
2021/03/08 06:35:34;;;;;;;17.92;9.18;;;;;;;2.68;59.92;100166.02;1747606;78;21309;-71
2021/03/08 06:38:08;;;;;;;18.70;10.45;;;;;;;2.71;59.74;100158.54;1687720;84;21296;-71
2021/03/08 06:40:41;;;;;;;;;;;;;;;2.72;59.63;100161.02;1698057;83;21212;-71
2021/03/08 06:43:13;;;;;;;16.77;8.08;;;;;;;2.75;59.59;100151.45;1655495;85;20229;-72
2021/03/08 06:45:46;;;;;;;14.53;7.97;;;;;;;2.75;59.45;100153.55;1679629;85;21174;-70
2021/03/08 06:48:20;;;;;;;14.18;6.72;;;;;;;2.77;59.45;100154.29;1692783;83;21462;-72
2021/03/08 06:51:18;;;;;;;17.55;8.83;;;;;;;2.81;59.37;100157.09;1709601;82;21226;-74
2021/03/08 06:53:51;;;;;;;18.87;9.58;;;;;;;2.85;59.26;100158.56;1698460;81;21283;-69
2021/03/08 06:56:26;;;;;;;19.17;9.18;;;;;;;2.88;59.30;100157.55;1701760;82;21378;-75
2021/03/08 06:59:15;;;;;;;21.07;10.95;;;;;;;2.96;59.32;100148.41;1737655;81;21853;-65
2021/03/08 07:01:48;;;;;;;22.95;9.93;;;;;;;3.07;59.12;100151.22;1735038;82;21358;-62
2021/03/08 07:04:27;;;;;;;19.35;9.68;;;;;;;3.18;58.89;100150.09;1722424;82;21259;-64
2021/03/08 07:07:09;;;;;;;23.62;12.82;;;;;;;3.31;58.40;100145.03;1716656;81;21214;-63
2021/03/08 07:09:50;;;;;;;21.90;9.85;;;;;;;3.39;58.20;100150.58;1716735;83;21228;-64
2021/03/08 07:12:23;;;;;;;17.55;9.53;;;;;;;3.47;58.07;100132.80;1693946;83;21917;-65
2021/03/08 07:15:07;;;;;;;19.98;10.25;;;;;;;3.53;57.82;100141.51;1719949;82;21266;-67
2021/03/08 07:17:42;;;;;;;15.08;9.00;;;;;;;3.64;57.68;100135.64;1712732;82;21331;-66
2021/03/08 07:20:17;;;;;;;15.68;8.08;;;;;;;3.77;57.31;100133.97;1717548;83;21210;-68
2021/03/08 07:22:53;;;;;;;18.12;9.25;;;;;;;3.93;56.69;100133.36;1692508;82;21287;-65
2021/03/08 07:25:32;;;;;;;15.00;7.95;;;;;;;4.04;56.22;100116.66;1738608;82;21322;-67
2021/03/08 07:28:06;;;;;;;20.12;9.85;;;;;;;4.11;55.71;100126.20;1724786;82;21972;-72
2021/03/08 07:30:40;;;;;;;16.32;7.87;;;;;;;4.18;55.45;100128.75;1709103;84;21309;-62
2021/03/08 07:33:16;;;;;;;19.07;9.55;;;;;;;4.25;55.19;100124.34;1708661;83;21295;-67
2021/03/08 07:35:53;;;;;;;14.23;8.23;;;;;;;4.42;55.26;100125.37;1717022;81;21850;-66
2021/03/08 07:38:34;;;;;;;19.37;9.08;;;;;;;4.70;54.40;100116.14;1696058;82;21285;-68
2021/03/08 07:41:15;;;;;;;15.40;8.70;;;;;;;4.96;53.52;100122.20;1686931;84;21230;-66
2021/03/08 07:43:50;;;;;;;17.82;8.38;;;;;;;5.75;52.47;100118.80;1718400;83;21394;-69
2021/03/08 07:46:35;;;;;;;15.90;9.08;;;;;;;6.70;50.56;100109.65;1691325;85;21351;-66
2021/03/08 07:49:09;;;;;;;20.48;9.85;;;;;;;7.34;48.75;100104.25;1703133;83;21229;-68
2021/03/08 07:52:07;;;;;;;15.75;8.95;;;;;;;7.78;47.06;100102.91;1688692;83;21237;-66
2021/03/08 07:54:59;;;;;;;15.85;8.50;;;;;;;8.40;45.27;100093.12;1703693;83;21335;-67
2021/03/08 07:57:32;;;;;;;12.55;7.60;;;;;;;8.98;44.20;100100.34;1690348;83;22232;-64
2021/03/08 08:00:06;;;;;;;16.37;8.33;;;;;;;9.43;41.99;100087.27;1687543;83;21376;-68
2021/03/08 08:02:39;;;;;;;13.20;7.42;;;;;;;9.46;41.66;100100.55;1690863;83;21888;-67
2021/03/08 08:05:14;;;;;;;18.40;8.70;;;;;;;9.78;41.67;100078.97;1690297;83;21288;-68
2021/03/08 08:07:46;;;;;;;;;;;;;;;10.41;40.40;100091.23;1691605;83;21346;-68
2021/03/08 08:10:20;;;;;;;17.25;8.58;;;;;;;11.13;39.41;100086.25;1689566;83;20195;-67
2021/03/08 08:12:56;;;;;;;16.25;8.30;;;;;;;11.98;37.83;100094.66;1689678;83;21222;-67
2021/03/08 08:15:34;;;;;;;21.48;8.63;;;;;;;12.78;36.17;100064.29;1689859;84;21354;-67
2021/03/08 08:18:14;;;;;;;15.93;8.78;;;;;;;13.25;35.47;100087.94;1693463;83;21168;-66
2021/03/08 08:20:51;;;;;;;16.02;8.10;;;;;;;13.66;34.07;100083.63;1689205;83;21339;-67
2021/03/08 08:23:29;;;;;;;13.98;8.38;;;;;;;13.71;33.97;100077.41;1689683;83;21405;-68
2021/03/08 08:26:16;;;;;;;13.03;8.33;;;;;;;13.77;33.81;100074.15;1694599;83;21209;-69
2021/03/08 08:28:50;;;;;;;15.03;8.08;;;;;;;13.87;33.68;100072.20;1696415;83;21308;-67
2021/03/08 08:31:23;;;;;;;;;;;;;;;13.86;33.00;100063.97;1703118;83;21316;-69
2021/03/08 08:33:56;;;;;;;14.38;8.60;;;;;;;13.47;32.85;100078.16;1689008;83;20303;-68
2021/03/08 08:36:29;;;;;;;;;;;;;;;12.89;33.89;100082.92;1702908;82;21229;-67
2021/03/08 08:39:08;;;;;;;12.75;8.23;;;;;;;12.37;34.45;100075.50;1717603;83;20217;-66
2021/03/08 08:41:42;;;;;;;14.53;8.70;;;;;;;11.62;35.60;100092.91;1689645;83;22009;-66
2021/03/08 08:44:19;;;;;;;17.00;9.73;;;;;;;11.14;36.24;100083.48;1687638;83;21202;-67
2021/03/08 08:46:52;;;;;;;14.33;8.23;;;;;;;11.10;36.69;100099.62;1686453;83;22238;-66
2021/03/08 08:49:26;;;;;;;17.05;9.30;;;;;;;11.15;36.54;100094.28;1649581;83;21352;-65
2021/03/08 08:52:00;;;;;;;16.50;9.33;;;;;;;11.17;36.81;100081.89;1665042;84;21206;-66
2021/03/08 08:54:39;;;;;;;14.80;8.35;;;;;;;11.21;36.73;100095.03;1683273;83;21389;-68
2021/03/08 08:57:12;;;;;;;17.92;9.00;;;;;;;11.53;36.46;100085.45;1685870;83;21345;-68
2021/03/08 08:59:49;;;;;;;17.98;9.98;;;;;;;12.16;35.99;100087.59;1690839;83;21453;-67
2021/03/08 09:02:30;;;;;;;11.83;7.87;;;;;;;12.54;35.57;100083.33;1684879;83;21197;-65
2021/03/08 09:05:35;;;;;;;13.30;8.93;;;;;;;12.81;34.67;100081.89;1683209;83;21324;-67
2021/03/08 09:08:31;;;;;;;14.18;7.90;;;;;;;13.03;33.68;100084.49;1688097;83;21166;-67
2021/03/08 09:11:04;;;;;;;12.70;8.05;;;;;;;13.23;33.42;100081.19;1695000;83;21230;-66
2021/03/08 09:14:11;;;;;;;22.82;9.88;;;;;;;13.29;33.39;100075.28;1693739;83;21655;-67
2021/03/08 09:17:26;;;;;;;10.82;6.90;;;;;;;13.12;33.18;100082.27;1691350;83;21154;-67
2021/03/08 09:20:04;;;;;;;19.90;8.05;;;;;;;12.51;33.85;100077.09;1689871;83;21332;-65
2021/03/08 09:22:47;;;;;;;17.30;9.20;;;;;;;11.69;34.96;100090.06;1685416;83;21743;-64
2021/03/08 09:25:26;;;;;;;16.93;9.05;;;;;;;11.21;35.75;100093.72;1689107;83;22560;-68
2021/03/08 09:28:13;;;;;;;22.50;9.45;;;;;;;10.99;36.84;100088.83;1686667;83;21368;-67
2021/03/08 09:30:51;;;;;;;16.20;8.73;;;;;;;10.89;37.10;100084.09;1686106;83;21812;-67
2021/03/08 09:33:24;;;;;;;19.45;10.13;;;;;;;10.61;37.39;100077.13;1687874;83;21268;-64
2021/03/08 09:36:01;;;;;;;16.15;9.13;;;;;;;10.32;37.92;100068.52;1685728;83;21233;-65
2021/03/08 09:38:55;;;;;;;24.82;8.70;;;;;;;10.11;38.65;100082.99;1688249;83;21295;-66
2021/03/08 09:42:05;;;;;;;15.75;9.18;;;;;;;10.11;38.90;100081.69;1693151;82;21259;-63
2021/03/08 09:44:49;;;;;;;18.48;9.73;;;;;;;10.26;39.27;100073.81;1695661;82;21351;-65
2021/03/08 09:47:22;;;;;;;16.57;9.07;;;;;;;10.38;39.00;100081.86;1707652;83;21341;-64
2021/03/08 09:49:56;;;;;;;14.35;7.95;;;;;;;10.57;39.13;100073.98;1711397;81;21318;-63
2021/03/08 09:52:38;;;;;;;;;;;;;;;10.73;38.95;100072.91;1699409;83;21377;-68
2021/03/08 09:55:20;;;;;;;15.35;8.65;;;;;;;10.63;38.80;100075.20;1701255;83;20462;-67
2021/03/08 09:57:54;;;;;;;15.38;8.38;;;;;;;10.31;38.96;100076.01;1672282;83;22557;-67
2021/03/08 10:00:30;;;;;;;23.67;9.48;;;;;;;10.11;39.54;100069.91;1710339;83;21653;-67
2021/03/08 10:03:09;;;;;;;14.75;9.53;;;;;;;9.93;39.90;100075.02;1709440;83;21476;-68
2021/03/08 10:05:53;;;;;;;16.77;9.75;;;;;;;9.83;40.30;100068.94;1709760;81;21330;-67
2021/03/08 10:08:36;;;;;;;15.10;8.73;;;;;;;9.75;40.33;100081.02;1699537;83;21495;-67
2021/03/08 10:11:29;;;;;;;16.67;9.85;;;;;;;9.59;39.87;100072.41;1705321;82;21383;-69
2021/03/08 10:14:04;;;;;;;13.03;8.75;;;;;;;9.32;40.06;100068.25;1703975;83;21161;-65
2021/03/08 10:16:39;;;;;;;15.35;9.13;;;;;;;9.06;40.55;100059.22;1700820;83;21358;-69
2021/03/08 10:19:12;;;;;;;23.83;10.95;;;;;;;8.79;41.49;100068.44;1700395;83;22273;-68
2021/03/08 10:21:54;;;;;;;18.85;8.60;;;;;;;8.65;42.11;100062.25;1697153;83;21819;-69
2021/03/08 10:24:41;;;;;;;17.75;10.30;;;;;;;8.61;42.56;100055.64;1699738;83;21329;-69
2021/03/08 10:27:15;;;;;;;17.10;9.98;;;;;;;8.62;42.81;100065.11;1711163;83;21349;-69
2021/03/08 10:29:52;;;;;;;19.92;9.00;;;;;;;8.63;42.70;100052.42;1676908;83;21213;-69
2021/03/08 10:32:28;;;;;;;18.65;8.25;;;;;;;8.72;42.97;100056.86;1696987;83;21402;-68
2021/03/08 10:35:03;;;;;;;16.05;8.95;;;;;;;8.77;42.62;100041.64;1703173;83;21948;-70
2021/03/08 10:37:36;;;;;;;;;;;;;;;8.73;42.69;100044.17;1711573;81;21326;-71
2021/03/08 10:40:11;;;;;;;12.95;8.08;;;;;;;8.67;42.84;100047.28;1702134;83;20264;-71
2021/03/08 10:42:46;;;;;;;17.37;9.78;;;;;;;8.67;43.25;100041.23;1695714;83;21298;-69
2021/03/08 10:45:20;;;;;;;14.58;7.50;;;;;;;8.73;43.14;100040.73;1704047;83;22210;-70
2021/03/08 10:48:13;;;;;;;14.78;7.97;;;;;;;8.80;42.83;100030.12;1693865;83;21870;-73
2021/03/08 10:50:52;;;;;;;19.20;9.13;;;;;;;8.76;43.01;100032.14;1701671;83;21296;-70
2021/03/08 10:53:28;;;;;;;16.37;10.00;;;;;;;8.71;43.26;100035.65;1723720;81;21314;-69
2021/03/08 10:56:02;;;;;;;14.10;8.23;;;;;;;8.77;43.29;100023.84;1739009;81;21844;-70
2021/03/08 10:58:39;;;;;;;21.07;11.70;;;;;;;8.75;42.74;100025.77;1722546;81;21427;-67
2021/03/08 11:01:13;;;;;;;14.23;8.08;;;;;;;8.59;42.67;100025.41;1722516;82;21852;-69
2021/03/08 11:03:48;;;;;;;14.70;7.62;;;;;;;8.51;42.77;100009.56;1700126;82;21206;-70
2021/03/08 11:06:23;;;;;;;11.93;8.05;;;;;;;8.46;43.04;100007.81;1715360;82;21864;-70
2021/03/08 11:09:03;;;;;;;12.30;7.33;;;;;;;8.42;43.10;100015.55;1715751;82;21330;-70
2021/03/08 11:11:42;;;;;;;17.00;8.18;;;;;;;8.41;43.35;100009.97;1742127;81;21409;-69
2021/03/08 11:14:15;;;;;;;13.65;8.15;;;;;;;8.39;43.59;100011.89;1704411;83;22193;-70
2021/03/08 11:16:55;;;;;;;18.17;8.33;;;;;;;8.38;43.74;100020.69;1743501;81;21310;-69
2021/03/08 11:19:30;;;;;;;16.05;7.90;;;;;;;8.37;43.40;100008.59;1700181;82;21379;-72
2021/03/08 11:22:13;;;;;;;17.57;8.08;;;;;;;8.31;43.43;100005.20;1740990;81;21198;-70
2021/03/08 11:24:52;;;;;;;19.50;10.03;;;;;;;8.23;43.80;100018.84;1722396;82;21314;-70
2021/03/08 11:27:28;;;;;;;14.38;8.40;;;;;;;8.19;44.03;100008.79;1717280;82;21924;-71
2021/03/08 11:30:11;;;;;;;13.43;7.45;;;;;;;8.17;44.58;99999.77;1722985;82;21305;-70
2021/03/08 11:32:44;;;;;;;13.65;7.37;;;;;;;8.14;44.06;100008.67;1699928;82;21398;-70
2021/03/08 11:35:22;;;;;;;19.07;7.80;;;;;;;8.06;44.44;100011.10;1702683;82;21324;-70
2021/03/08 11:38:03;;;;;;;16.00;7.70;;;;;;;8.01;44.17;100003.30;1714827;82;21251;-70
2021/03/08 11:40:40;;;;;;;13.60;8.30;;;;;;;7.83;44.30;100010.83;1739570;81;21163;-69
2021/03/08 11:43:14;;;;;;;18.17;7.42;;;;;;;7.68;44.74;99994.32;1734214;81;21344;-68
2021/03/08 11:45:47;;;;;;;16.35;9.13;;;;;;;7.55;45.50;100012.70;1729656;81;21211;-70
2021/03/08 11:48:27;;;;;;;12.78;7.35;;;;;;;7.57;45.96;100011.30;1728921;81;22248;-70
2021/03/08 11:51:02;;;;;;;13.03;7.92;;;;;;;7.62;45.92;100022.18;1714397;82;21358;-70
2021/03/08 11:53:36;;;;;;;13.80;6.87;;;;;;;7.66;45.72;100017.91;1700380;82;21363;-70
2021/03/08 11:56:09;;;;;;;13.20;7.60;;;;;;;7.63;45.89;100009.48;1715547;82;21927;-69
2021/03/08 11:58:43;;;;;;;15.70;7.28;;;;;;;7.63;45.87;100012.93;1708989;82;21296;-71
2021/03/08 12:01:17;;;;;;;13.85;7.58;;;;;;;7.61;45.73;100008.32;1713124;82;21192;-71
2021/03/08 12:03:52;;;;;;;15.23;7.90;;;;;;;7.56;45.97;100000.52;1705612;82;22010;-69
2021/03/08 12:06:26;;;;;;;11.08;6.47;;;;;;;7.41;45.51;100022.92;1717216;82;21189;-71
2021/03/08 12:09:01;;;;;;;10.48;6.53;;;;;;;7.24;45.77;100023.42;1709495;82;22166;-70
2021/03/08 12:11:34;;;;;;;10.85;7.03;;;;;;;7.09;45.61;100019.91;1721350;82;21173;-67
2021/03/08 12:14:07;;;;;;;11.03;6.62;;;;;;;6.96;46.11;100040.01;1710219;82;21767;-67
2021/03/08 12:16:40;;;;;;;16.95;6.60;;;;;;;6.88;46.50;100028.88;1710379;82;21296;-65